Time;durP1;ratioP1;P1;durP2;ratioP2;P2;SDS_P1;SDS_P2;PMS_P1;PMS_P2;Temp;Humidity;BMP_temperature;BMP_pressure;BME280_temperature;BME280_humidity;BME280_pressure;Samples;Min_cycle;Max_cycle;Signal;HPM_P1;HPM_P2
2022/04/10 00:01:15;;;;;;;20.45;2.47;;;3.10;99.90;;;;;;5012043;28;20133;-85
2022/04/10 00:03:40;;;;;;;15.73;2.20;;;3.00;99.90;;;;;;5012058;28;20189;-84
2022/04/10 00:06:15;;;;;;;10.07;2.25;;;3.00;99.90;;;;;;5012122;28;20156;-84
2022/04/10 00:08:53;;;;;;;13.70;2.10;;;4.00;99.90;;;;;;4977593;28;20058;-83
2022/04/10 00:11:19;;;;;;;12.55;2.40;;;2.90;99.90;;;;;;4994765;28;20049;-84
2022/04/10 00:13:45;;;;;;;15.15;2.67;;;3.30;99.90;;;;;;5029060;28;20053;-82
2022/04/10 00:16:13;;;;;;;17.38;2.47;;;2.90;99.90;;;;;;5031117;28;20103;-84
2022/04/10 00:18:39;;;;;;;11.20;1.98;;;2.90;99.90;;;;;;5012021;28;20060;-84
2022/04/10 00:23:39;;;;;;;14.50;2.45;;;2.90;99.90;;;;;;4996085;23;20046;-84
2022/04/10 00:26:20;;;;;;;12.45;2.50;;;3.60;99.90;;;;;;4958418;28;20413;-84
2022/04/10 00:28:57;;;;;;;13.25;2.40;;;2.70;99.90;;;;;;4957426;28;20057;-85
2022/04/10 00:31:35;;;;;;;23.30;3.05;;;3.40;99.90;;;;;;4957918;28;20387;-84
2022/04/10 00:34:00;;;;;;;19.23;2.75;;;2.80;99.90;;;;;;4974243;28;20580;-83
2022/04/10 00:36:29;;;;;;;15.90;2.83;;;2.90;99.90;;;;;;4974380;28;20042;-83
2022/04/10 00:38:55;;;;;;;13.35;2.17;;;3.70;99.90;;;;;;4991881;28;20445;-82
2022/04/10 00:41:20;;;;;;;11.60;2.17;;;2.90;99.90;;;;;;4974181;28;20050;-84
2022/04/10 00:44:20;;;;;;;;;;;;;;;;;;;;;
2022/04/10 00:46:50;;;;;;;16.88;2.33;;;2.80;99.90;;;;;;4973956;28;20446;-83
2022/04/10 00:49:16;;;;;;;18.45;2.65;;;2.80;99.90;;;;;;4991652;28;20129;-84
2022/04/10 00:51:44;;;;;;;15.38;2.50;;;2.70;99.90;;;;;;4974149;28;20129;-84
2022/04/10 00:54:21;;;;;;;18.23;4.10;;;3.40;99.90;;;;;;4957974;28;20583;-83
2022/04/10 00:56:47;;;;;;;15.68;2.47;;;2.60;99.90;;;;;;4958174;28;20478;-84
2022/04/10 00:59:24;;;;;;;13.10;2.00;;;2.40;99.90;;;;;;4957892;28;20163;-84
2022/04/10 01:02:04;;;;;;;15.88;2.90;;;3.10;99.90;;;;;;4933995;29;20059;-84
2022/04/10 01:04:34;;;;;;;12.23;2.10;;;2.50;99.90;;;;;;4950452;29;20407;-84
2022/04/10 01:07:06;;;;;;;16.83;2.40;;;3.40;99.90;;;;;;4950321;29;20103;-86
2022/04/10 01:09:32;;;;;;;15.27;2.60;;;3.50;99.90;;;;;;4918545;29;20073;-85
2022/04/10 01:11:59;;;;;;;20.38;3.33;;;2.40;99.90;;;;;;4949991;29;20383;-85
2022/04/10 01:14:25;;;;;;;18.80;1.75;;;2.40;99.90;;;;;;4950490;29;20051;-83
2022/04/10 01:16:51;;;;;;;22.70;2.47;;;2.40;99.90;;;;;;4934340;29;20055;-84
2022/04/10 01:19:21;;;;;;;16.75;2.70;;;2.40;99.90;;;;;;4949842;29;20045;-83
2022/04/10 01:22:03;;;;;;;17.20;2.70;;;2.30;99.90;;;;;;4917896;29;20061;-85
2022/04/10 01:24:29;;;;;;;14.80;2.50;;;2.20;99.90;;;;;;4950085;29;20090;-83
2022/04/10 01:26:55;;;;;;;16.25;2.70;;;2.30;99.90;;;;;;4948746;28;20071;-85
2022/04/10 01:29:21;;;;;;;26.80;2.75;;;2.50;99.90;;;;;;4949820;29;20058;-86
2022/04/10 01:31:47;;;;;;;15.38;2.15;;;2.40;99.90;;;;;;4939795;28;20058;-84
2022/04/10 01:34:14;;;;;;;13.40;2.30;;;2.00;99.90;;;;;;4990633;28;20089;-86
2022/04/10 01:36:44;;;;;;;14.18;2.45;;;2.90;99.90;;;;;;4973498;28;20133;-84
2022/04/10 01:39:12;;;;;;;17.50;2.40;;;3.00;99.90;;;;;;4990957;28;20093;-84
2022/04/10 01:41:38;;;;;;;9.38;2.40;;;2.80;99.90;;;;;;4990835;28;20517;-84
2022/04/10 01:44:05;;;;;;;22.38;2.67;;;3.00;99.90;;;;;;4973577;28;20081;-85
2022/04/10 01:46:32;;;;;;;16.40;3.35;;;2.30;99.90;;;;;;4990888;28;20690;-83
2022/04/10 01:49:03;;;;;;;18.30;2.90;;;1.90;99.90;;;;;;4990090;28;20049;-84
2022/04/10 01:51:32;;;;;;;16.98;2.47;;;2.50;99.90;;;;;;4957186;28;20046;-84
2022/04/10 01:54:05;;;;;;;14.00;2.10;;;1.90;99.90;;;;;;4957196;28;20081;-84
2022/04/10 01:56:31;;;;;;;16.88;2.83;;;1.90;99.90;;;;;;4990782;28;20133;-84
2022/04/10 01:59:04;;;;;;;23.35;2.95;;;1.90;99.90;;;;;;4990933;28;20437;-84
2022/04/10 02:01:30;;;;;;;12.48;2.90;;;1.80;99.90;;;;;;4962485;28;20138;-83
2022/04/10 02:03:56;;;;;;;18.88;3.63;;;2.30;99.90;;;;;;4971392;28;20509;-84
2022/04/10 02:06:21;;;;;;;13.77;2.50;;;1.80;99.90;;;;;;4954311;28;20043;-83
2022/04/10 02:08:47;;;;;;;16.48;2.63;;;1.90;99.90;;;;;;4938244;28;20458;-83
2022/04/10 02:11:21;;;;;;;14.65;2.42;;;2.70;99.90;;;;;;4955782;28;20056;-82
2022/04/10 02:14:05;;;;;;;17.92;3.55;;;2.60;99.90;;;;;;4990607;28;20050;-82
2022/04/10 02:16:31;;;;;;;15.90;2.63;;;2.10;99.90;;;;;;4990576;28;20038;-83
2022/04/10 02:19:13;;;;;;;15.40;2.03;;;2.90;99.90;;;;;;4989822;28;20050;-86
2022/04/10 02:21:38;;;;;;;13.90;2.20;;;1.70;99.90;;;;;;4972222;28;20058;-84
2022/04/10 02:24:05;;;;;;;12.95;2.67;;;2.20;99.90;;;;;;4993917;28;20112;-82
2022/04/10 02:26:30;;;;;;;15.93;2.65;;;1.80;99.90;;;;;;4991723;28;20489;-84
2022/04/10 02:29:11;;;;;;;10.05;1.77;;;2.10;99.90;;;;;;4989776;28;20049;-85
2022/04/10 02:31:58;;;;;;;13.02;2.45;;;1.50;99.90;;;;;;4973330;28;20096;-83
2022/04/10 02:34:26;;;;;;;23.63;2.42;;;1.60;99.90;;;;;;4972761;28;20178;-83
2022/04/10 02:36:54;;;;;;;13.88;3.08;;;1.60;99.90;;;;;;4972757;28;20046;-83
2022/04/10 02:39:20;;;;;;;18.65;2.53;;;1.80;99.90;;;;;;4960515;28;20050;-84
2022/04/10 02:41:45;;;;;;;18.48;2.28;;;1.80;99.90;;;;;;4993398;28;20057;-84
2022/04/10 02:44:16;;;;;;;14.80;2.53;;;1.90;99.90;;;;;;4975965;28;20056;-85
2022/04/10 02:46:42;;;;;;;12.98;1.90;;;1.90;99.90;;;;;;4993699;28;20565;-82
2022/04/10 02:49:08;;;;;;;12.25;2.60;;;2.00;99.90;;;;;;4993864;28;20057;-83
2022/04/10 02:51:42;;;;;;;9.82;1.83;;;2.10;99.90;;;;;;4993342;28;20050;-85
2022/04/10 02:54:16;;;;;;;14.55;2.13;;;2.10;99.90;;;;;;4976132;28;20129;-84
2022/04/10 02:56:42;;;;;;;10.40;2.20;;;2.20;99.90;;;;;;4976085;28;20105;-82
2022/04/10 02:59:08;;;;;;;10.20;2.10;;;2.30;99.90;;;;;;4993462;28;20081;-83
2022/04/10 03:01:40;;;;;;;9.90;1.50;;;3.20;99.90;;;;;;4993432;28;20145;-83
2022/04/10 03:04:14;;;;;;;11.75;1.17;;;2.30;99.90;;;;;;4993775;28;20431;-84
2022/04/10 03:06:40;;;;;;;7.35;2.00;;;2.90;99.90;;;;;;4993545;28;20429;-84
2022/04/10 03:09:18;;;;;;;22.73;1.95;;;2.30;99.90;;;;;;4994089;28;20046;-84
2022/04/10 03:11:47;;;;;;;13.30;1.73;;;2.30;99.90;;;;;;4976046;28;20406;-84
2022/04/10 03:14:16;;;;;;;7.07;1.40;;;2.40;99.90;;;;;;4993313;28;20041;-84
2022/04/10 03:16:48;;;;;;;7.70;1.65;;;3.40;99.90;;;;;;4959538;28;20056;-85
2022/04/10 03:19:23;;;;;;;9.15;1.45;;;2.20;99.90;;;;;;4993412;28;20050;-84
2022/04/10 03:21:48;;;;;;;9.70;1.13;;;2.30;99.90;;;;;;4992148;28;20059;-83
2022/04/10 03:24:14;;;;;;;5.22;1.40;;;3.10;99.90;;;;;;4975922;28;20076;-85
2022/04/10 03:26:39;;;;;;;12.15;1.52;;;2.50;99.90;;;;;;4993368;28;20046;-82
2022/04/10 03:29:05;;;;;;;6.40;1.00;;;2.60;99.90;;;;;;4975588;28;20034;-84
2022/04/10 03:31:37;;;;;;;7.47;1.15;;;2.70;99.90;;;;;;4965559;23;20563;-82
2022/04/10 03:34:21;;;;;;;7.60;1.52;;;2.70;99.90;;;;;;4992989;28;20077;-82
2022/04/10 03:36:46;;;;;;;8.23;1.17;;;3.50;99.90;;;;;;4974887;28;20050;-84
2022/04/10 03:39:12;;;;;;;6.30;1.10;;;2.80;99.90;;;;;;4992309;28;20062;-84
2022/04/10 03:41:38;;;;;;;7.22;1.00;;;2.70;99.90;;;;;;4957033;28;20132;-85
2022/04/10 03:44:13;;;;;;;10.15;1.25;;;3.60;99.90;;;;;;4992167;28;20082;-82
2022/04/10 03:47:01;;;;;;;9.60;1.42;;;2.60;99.90;;;;;;4991997;28;20046;-84
2022/04/10 03:49:27;;;;;;;8.30;0.82;;;2.40;99.90;;;;;;4947467;28;20093;-85
2022/04/10 03:52:02;;;;;;;6.22;1.15;;;2.50;99.90;;;;;;4974769;28;20077;-84
2022/04/10 03:54:40;;;;;;;7.10;0.90;;;2.70;99.90;;;;;;4992177;28;20512;-85
2022/04/10 03:57:05;;;;;;;6.68;1.38;;;3.50;99.90;;;;;;4975350;28;20366;-85
2022/04/10 03:59:31;;;;;;;3.20;0.82;;;2.70;99.90;;;;;;4975591;28;20096;-85
2022/04/10 04:01:57;;;;;;;4.10;0.77;;;3.60;99.90;;;;;;4974293;28;20054;-84
2022/04/10 04:04:28;;;;;;;5.85;1.25;;;3.10;99.90;;;;;;5015487;23;20116;-84
2022/04/10 04:07:00;;;;;;;4.93;0.93;;;2.50;99.90;;;;;;5009621;28;20046;-85
2022/04/10 04:09:29;;;;;;;6.07;0.73;;;2.60;99.90;;;;;;5011203;28;20041;-86
2022/04/10 04:12:10;;;;;;;3.97;0.70;;;3.20;99.90;;;;;;4997065;28;20129;-83
2022/04/10 04:14:45;;;;;;;7.53;0.85;;;1.90;99.90;;;;;;4988589;28;20084;-83
2022/04/10 04:17:11;;;;;;;7.28;1.10;;;3.00;99.90;;;;;;5001840;28;20049;-84
2022/04/10 04:19:43;;;;;;;8.70;1.30;;;3.40;99.90;;;;;;5008493;28;20049;-83
2022/04/10 04:22:15;;;;;;;11.95;1.65;;;3.80;99.90;;;;;;5009663;28;20049;-85
2022/04/10 04:24:40;;;;;;;12.15;1.58;;;3.40;99.90;;;;;;5011076;28;20599;-84
2022/04/10 04:27:09;;;;;;;9.20;1.10;;;2.60;99.90;;;;;;4993766;28;20183;-86
2022/04/10 04:29:36;;;;;;;5.78;1.15;;;2.30;99.90;;;;;;5012239;28;20046;-85
2022/04/10 04:32:11;;;;;;;8.73;1.10;;;3.40;99.90;;;;;;4991321;28;20042;-83
2022/04/10 04:34:36;;;;;;;5.00;0.93;;;3.00;99.90;;;;;;4984840;28;20069;-83
2022/04/10 04:37:02;;;;;;;3.35;0.90;;;3.20;99.90;;;;;;5020685;28;20041;-85
2022/04/10 04:39:28;;;;;;;7.20;1.48;;;2.40;99.90;;;;;;5017343;28;20586;-84
2022/04/10 04:42:03;;;;;;;4.45;0.88;;;3.20;99.90;;;;;;5002878;28;20515;-84
2022/04/10 04:44:30;;;;;;;4.90;0.90;;;2.30;99.90;;;;;;4998807;28;20103;-84
2022/04/10 04:47:11;;;;;;;9.68;1.10;;;2.30;99.90;;;;;;4956133;28;20063;-85
2022/04/10 04:49:50;;;;;;;5.13;1.20;;;2.30;99.90;;;;;;4982974;28;20807;-86
2022/04/10 04:55:02;;;;;;;9.82;1.70;;;2.20;99.90;;;;;;4994912;23;20128;-85
2022/04/10 04:57:36;;;;;;;9.40;1.60;;;2.20;99.90;;;;;;4957440;28;20042;-84
2022/04/10 05:00:03;;;;;;;10.77;1.50;;;2.10;99.90;;;;;;5042630;23;20050;-85
2022/04/10 05:02:31;;;;;;;9.05;1.20;;;2.20;99.90;;;;;;5010071;23;20061;-84
2022/04/10 05:04:56;;;;;;;6.20;1.17;;;2.20;99.90;;;;;;4992152;28;20049;-85
2022/04/10 05:07:23;;;;;;;8.20;1.40;;;3.20;99.90;;;;;;5011154;28;20044;-84
2022/04/10 05:10:07;;;;;;;7.70;1.58;;;2.20;99.90;;;;;;4993343;28;20069;-85
2022/04/10 05:12:35;;;;;;;6.50;1.92;;;2.20;99.90;;;;;;5004609;28;20037;-85
2022/04/10 05:15:01;;;;;;;15.55;1.48;;;2.20;99.90;;;;;;5005166;28;20100;-82
2022/04/10 05:17:41;;;;;;;10.27;1.50;;;2.70;99.90;;;;;;5010254;28;20504;-85
2022/04/10 05:20:22;;;;;;;6.03;2.13;;;1.90;99.90;;;;;;5010419;28;20073;-84
2022/04/10 05:22:47;;;;;;;14.68;3.28;;;1.90;99.90;;;;;;5024122;28;20113;-85
2022/04/10 05:25:19;;;;;;;13.73;3.33;;;2.90;99.90;;;;;;4992199;28;20281;-85
2022/04/10 05:27:45;;;;;;;5.13;2.28;;;2.10;99.90;;;;;;5021712;28;20464;-84
2022/04/10 05:30:20;;;;;;;6.90;1.58;;;2.00;99.90;;;;;;5000323;28;20034;-85
2022/04/10 05:32:47;;;;;;;10.90;1.63;;;2.90;99.90;;;;;;5005426;28;20048;-86
2022/04/10 05:35:16;;;;;;;7.53;1.58;;;2.20;99.90;;;;;;5002390;28;20060;-85
2022/04/10 05:37:42;;;;;;;4.90;1.40;;;2.80;99.90;;;;;;5025833;28;20042;-85
2022/04/10 05:40:08;;;;;;;7.45;1.20;;;1.50;99.90;;;;;;5017807;28;20062;-85
2022/04/10 05:42:47;;;;;;;2.38;1.13;;;2.20;99.90;;;;;;5017853;28;20050;-85
2022/04/10 05:45:12;;;;;;;2.92;1.00;;;2.20;99.90;;;;;;5012614;28;20044;-85
2022/04/10 05:47:39;;;;;;;7.97;1.52;;;2.30;99.90;;;;;;4995348;28;20128;-86
2022/04/10 05:50:12;;;;;;;9.35;1.80;;;3.00;99.90;;;;;;4997231;28;20057;-85
2022/04/10 05:52:46;;;;;;;5.43;1.50;;;2.50;99.90;;;;;;4991527;28;20053;-86
2022/04/10 05:55:14;;;;;;;6.40;1.67;;;3.60;99.90;;;;;;5017074;28;20042;-85
2022/04/10 05:57:40;;;;;;;10.65;2.28;;;2.30;99.90;;;;;;4984417;28;20124;-85
2022/04/10 06:00:10;;;;;;;9.30;1.67;;;2.80;99.90;;;;;;5024119;28;20045;-83
2022/04/10 06:02:43;;;;;;;13.65;1.80;;;2.70;99.90;;;;;;5062337;23;20567;-86
2022/04/10 06:05:15;;;;;;;4.65;1.63;;;3.10;99.90;;;;;;4972687;28;20515;-85
2022/04/10 06:08:23;;;;;;;14.32;2.50;;;3.00;99.90;;;;;;5030558;23;20101;-86
2022/04/10 06:10:49;;;;;;;5.05;1.80;;;2.70;99.90;;;;;;4965637;28;20047;-86
2022/04/10 06:13:37;;;;;;;15.38;1.58;;;3.30;99.90;;;;;;4963986;28;20042;-86
2022/04/10 06:16:05;;;;;;;6.63;1.63;;;2.50;99.90;;;;;;4955264;28;20500;-85
2022/04/10 06:18:34;;;;;;;9.68;1.55;;;2.80;99.90;;;;;;4951651;28;20051;-85
2022/04/10 06:21:12;;;;;;;9.95;1.38;;;3.40;99.90;;;;;;4941697;28;20138;-85
2022/04/10 06:23:38;;;;;;;10.90;1.55;;;4.10;99.90;;;;;;4955099;28;20054;-86
2022/04/10 06:26:03;;;;;;;4.20;1.80;;;3.30;99.90;;;;;;4975491;23;20043;-85
2022/04/10 06:28:33;;;;;;;11.68;1.38;;;2.90;99.90;;;;;;4977872;23;20054;-85
2022/04/10 06:31:04;;;;;;;6.30;1.42;;;3.00;99.90;;;;;;4993740;28;20050;-86
2022/04/10 06:33:42;;;;;;;13.30;1.40;;;3.80;99.90;;;;;;5009357;28;20042;-86
2022/04/10 06:44:04;;;;;;;7.10;1.45;;;3.60;99.90;;;;;;5392285;23;20499;-87
2022/04/10 06:46:42;;;;;;;6.43;1.20;;;3.60;99.90;;;;;;4952497;29;20059;-84
2022/04/10 06:49:08;;;;;;;9.23;1.52;;;4.20;99.90;;;;;;4933568;29;20458;-86
2022/04/10 06:51:40;;;;;;;12.50;1.42;;;4.60;99.90;;;;;;4918694;29;20048;-86
2022/04/10 06:54:07;;;;;;;7.47;1.30;;;4.70;99.90;;;;;;4918366;29;20150;-86
2022/04/10 06:56:36;;;;;;;12.85;2.08;;;4.40;99.90;;;;;;4948297;29;21062;-87
2022/04/10 06:59:02;;;;;;;13.73;1.50;;;4.20;99.90;;;;;;4954678;23;20047;-83
2022/04/10 07:01:27;;;;;;;9.10;1.60;;;4.30;99.90;;;;;;4995670;23;20062;-86
2022/04/10 07:03:53;;;;;;;10.15;1.38;;;5.00;99.90;;;;;;4957516;28;20058;-87
2022/04/10 07:06:28;;;;;;;16.67;1.73;;;4.90;99.90;;;;;;4959390;28;20053;-87
2022/04/10 07:08:57;;;;;;;14.18;1.40;;;4.50;99.90;;;;;;4959255;28;20153;-87
2022/04/10 07:11:32;;;;;;;5.88;1.10;;;4.90;99.90;;;;;;4975402;28;20046;-86
2022/04/10 07:14:06;;;;;;;12.27;1.88;;;4.60;99.90;;;;;;4973926;28;20090;-86
2022/04/10 07:16:48;;;;;;;6.80;1.40;;;4.40;99.90;;;;;;4992488;28;20497;-86
2022/04/10 07:19:17;;;;;;;8.13;1.40;;;4.50;99.90;;;;;;4966978;28;20493;-86
2022/04/10 07:24:38;;;;;;;9.15;1.55;;;5.90;99.90;;;;;;4975588;28;20472;-87
2022/04/10 07:27:04;;;;;;;8.48;1.95;;;5.40;99.90;;;;;;4976490;28;20062;-87
2022/04/10 07:29:32;;;;;;;6.95;1.45;;;5.40;99.90;;;;;;4999551;28;20053;-88
2022/04/10 07:31:58;;;;;;;6.25;1.02;;;5.60;99.90;;;;;;4974565;28;20054;-88
2022/04/10 07:34:36;;;;;;;9.25;1.23;;;5.00;99.90;;;;;;4975295;28;20056;-87
2022/04/10 07:37:02;;;;;;;9.18;1.67;;;6.00;99.90;;;;;;4988733;28;20054;-87
2022/04/10 07:39:41;;;;;;;12.02;1.45;;;5.10;99.90;;;;;;5003287;28;20069;-87
2022/04/10 07:42:08;;;;;;;11.52;1.58;;;5.10;99.90;;;;;;4999552;28;20548;-86
2022/04/10 07:44:33;;;;;;;8.90;1.60;;;5.20;99.90;;;;;;4963659;28;20097;-86
2022/04/10 07:49:51;;;;;;;7.80;1.80;;;6.30;99.90;;;;;;4987397;28;20386;-87
2022/04/10 07:52:27;;;;;;;11.20;1.83;;;5.70;99.90;;;;;;4992988;28;20461;-86
2022/04/10 07:54:52;;;;;;;9.98;1.52;;;5.60;99.90;;;;;;4993163;28;20053;-87
2022/04/10 07:57:18;;;;;;;9.30;1.70;;;6.70;99.90;;;;;;4958136;28;20042;-87
2022/04/10 07:59:53;;;;;;;12.32;1.58;;;6.80;99.90;;;;;;4974661;28;20058;-85
2022/04/10 08:02:18;;;;;;;12.35;1.80;;;6.60;99.90;;;;;;4992188;28;20075;-87
2022/04/10 08:04:44;;;;;;;12.48;2.13;;;6.90;99.90;;;;;;4974796;28;20398;-87
2022/04/10 08:07:10;;;;;;;12.23;1.90;;;6.80;99.90;;;;;;4958188;28;20445;-88
2022/04/10 08:09:36;;;;;;;11.80;1.73;;;6.80;99.90;;;;;;4974866;28;20117;-85
2022/04/10 08:12:01;;;;;;;13.45;1.80;;;7.00;99.90;;;;;;4991668;28;20393;-85
2022/04/10 08:14:27;;;;;;;9.80;1.48;;;6.70;99.90;;;;;;4991703;28;20046;-86
2022/04/10 08:16:59;;;;;;;11.95;1.67;;;7.50;99.90;;;;;;4991938;28;20038;-85
2022/04/10 08:19:27;;;;;;;11.52;1.98;;;7.00;99.90;;;;;;4991464;28;20046;-86
2022/04/10 08:22:05;;;;;;;9.98;1.92;;;7.70;99.90;;;;;;4991891;28;20088;-84
2022/04/10 08:24:30;;;;;;;10.00;2.03;;;7.70;99.90;;;;;;4970637;28;20502;-85
2022/04/10 08:26:56;;;;;;;9.98;2.15;;;7.80;99.90;;;;;;4974659;28;20054;-85
2022/04/10 08:29:29;;;;;;;9.95;1.80;;;7.90;99.90;;;;;;4991951;28;20085;-85
2022/04/10 08:31:55;;;;;;;11.50;1.55;;;8.20;99.90;;;;;;4958178;28;20482;-85
2022/04/10 08:34:30;;;;;;;12.65;1.58;;;8.40;99.90;;;;;;4973451;28;20073;-84
2022/04/10 08:36:56;;;;;;;;;;;8.50;99.90;;;;;;4974478;28;20085;-85
2022/04/10 08:39:49;;;;;;;12.82;1.67;;;8.30;99.90;;;;;;4980349;28;19922;-86
2022/04/10 08:42:28;;;;;;;11.45;1.75;;;8.30;99.90;;;;;;4955319;28;20387;-86
2022/04/10 08:45:00;;;;;;;9.63;1.70;;;9.10;99.90;;;;;;4965884;28;20389;-85
2022/04/10 08:47:25;;;;;;;11.45;1.70;;;8.10;99.90;;;;;;4973653;28;20524;-84
2022/04/10 08:50:03;;;;;;;8.73;1.55;;;8.90;99.90;;;;;;4990698;28;20089;-83
2022/04/10 08:52:30;;;;;;;10.77;1.50;;;7.90;99.90;;;;;;4991258;28;20061;-86
2022/04/10 08:55:02;;;;;;;10.55;1.42;;;7.90;99.90;;;;;;4991602;28;20114;-84
2022/04/10 08:57:39;;;;;;;7.47;1.38;;;8.00;99.90;;;;;;4991236;28;20069;-84
2022/04/10 09:00:06;;;;;;;14.15;2.00;;;7.90;99.90;;;;;;4990276;28;20058;-83
2022/04/10 09:02:50;;;;;;;7.30;1.35;;;8.20;99.90;;;;;;4991428;28;20058;-84
2022/04/10 09:05:27;;;;;;;9.70;1.73;;;8.30;99.90;;;;;;4973366;28;20057;-85
2022/04/10 09:08:12;;;;;;;8.65;1.63;;;8.20;99.90;;;;;;4973194;28;20062;-84
2022/04/10 09:11:02;;;;;;;7.30;1.25;;;8.40;99.90;;;;;;4957628;28;20105;-83
2022/04/10 09:13:41;;;;;;;6.97;1.58;;;8.00;99.90;;;;;;4951153;28;20108;-83
2022/04/10 09:16:09;;;;;;;10.13;1.90;;;8.20;99.90;;;;;;4957511;28;20091;-84
2022/04/10 09:19:01;;;;;;;8.27;1.13;;;8.50;99.90;;;;;;4990695;28;20057;-83
2022/04/10 09:21:33;;;;;;;8.57;1.27;;;8.90;99.90;;;;;;4986278;28;20073;-84
2022/04/10 09:24:07;;;;;;;8.38;1.05;;;9.10;99.90;;;;;;4970435;28;20108;-86
2022/04/10 09:26:52;;;;;;;5.57;1.17;;;9.40;99.90;;;;;;4991037;28;20049;-83
2022/04/10 09:29:22;;;;;;;8.40;1.25;;;9.80;99.90;;;;;;4990770;28;20853;-83
2022/04/10 09:31:54;;;;;;;6.85;1.50;;;9.80;99.90;;;;;;4990949;28;20042;-83
2022/04/10 09:34:28;;;;;;;13.25;1.20;;;9.90;99.90;;;;;;4990757;28;20096;-84
2022/04/10 09:37:03;;;;;;;5.95;1.63;;;9.90;99.90;;;;;;4957446;28;20042;-85
2022/04/10 09:39:36;;;;;;;9.00;1.50;;;9.10;99.90;;;;;;4990905;28;20072;-84
2022/04/10 09:42:09;;;;;;;7.25;1.40;;;8.60;99.90;;;;;;4990730;28;20034;-84
2022/04/10 09:44:37;;;;;;;10.10;1.90;;;8.70;99.90;;;;;;4956768;28;20053;-85
2022/04/10 09:47:14;;;;;;;8.05;1.40;;;9.10;99.90;;;;;;4990052;28;20576;-84
2022/04/10 09:49:43;;;;;;;14.88;1.60;;;9.00;99.90;;;;;;4972908;28;20547;-84
2022/04/10 09:52:12;;;;;;;9.45;2.03;;;9.30;99.90;;;;;;4990227;28;20089;-84
2022/04/10 09:54:52;;;;;;;8.20;1.30;;;9.40;99.90;;;;;;4990278;28;20046;-83
2022/04/10 09:57:19;;;;;;;16.30;1.90;;;9.90;99.90;;;;;;4973075;28;20054;-84
2022/04/10 09:59:47;;;;;;;12.52;1.60;;;10.00;99.90;;;;;;4969335;28;20055;-86
2022/04/10 10:02:14;;;;;;;8.48;1.70;;;9.90;99.90;;;;;;4956388;28;20042;-85
2022/04/10 10:04:49;;;;;;;8.07;1.40;;;10.00;99.90;;;;;;4972916;28;20374;-86
2022/04/10 10:07:31;;;;;;;7.15;1.45;;;9.50;99.90;;;;;;4989888;28;20077;-84
2022/04/10 10:10:00;;;;;;;9.45;1.40;;;9.60;99.90;;;;;;4990193;28;20051;-80
2022/04/10 10:12:29;;;;;;;9.45;1.40;;;9.30;99.90;;;;;;4990301;28;20050;-85
2022/04/10 10:15:02;;;;;;;10.43;1.15;;;10.30;99.90;;;;;;4972700;28;20052;-83
2022/04/10 10:17:28;;;;;;;15.70;1.60;;;9.80;99.90;;;;;;4990347;28;20375;-85
2022/04/10 10:19:56;;;;;;;10.55;2.00;;;10.20;99.90;;;;;;4972367;28;20042;-86
2022/04/10 10:22:21;;;;;;;9.00;1.63;;;9.80;99.90;;;;;;4990162;28;20058;-84
2022/04/10 10:25:15;;;;;;;9.25;1.45;;;10.00;99.90;;;;;;4989965;28;20041;-85
2022/04/10 10:28:27;;;;;;;7.97;1.70;;;9.20;99.90;;;;;;4958855;28;20035;-84
2022/04/10 10:31:01;;;;;;;5.60;1.30;;;9.80;99.90;;;;;;4990536;28;20069;-82
2022/04/10 10:33:30;;;;;;;8.50;1.35;;;10.20;99.90;;;;;;4990232;28;20133;-86
2022/04/10 10:35:57;;;;;;;7.82;1.30;;;10.40;99.90;;;;;;4990673;28;20137;-82
2022/04/10 10:38:25;;;;;;;11.63;1.85;;;10.80;99.90;;;;;;4990198;28;20081;-84
2022/04/10 10:41:12;;;;;;;9.23;1.85;;;10.60;99.90;;;;;;4972349;28;20485;-82
2022/04/10 10:43:38;;;;;;;10.25;1.52;;;11.60;99.90;;;;;;4951367;28;20096;-83
2022/04/10 10:46:34;;;;;;;16.13;1.70;;;11.50;99.90;;;;;;4972556;28;20038;-84
2022/04/10 10:49:13;;;;;;;6.88;1.20;;;11.40;99.90;;;;;;4972338;28;20049;-85
2022/04/10 10:52:02;;;;;;;17.08;1.83;;;11.10;99.90;;;;;;4972043;28;20057;-84
2022/04/10 10:54:58;;;;;;;8.60;1.50;;;10.60;99.90;;;;;;4956726;28;20141;-85
2022/04/10 10:57:48;;;;;;;7.28;1.15;;;10.60;99.90;;;;;;4957265;28;20046;-85
2022/04/10 11:00:19;;;;;;;9.52;1.80;;;10.40;99.90;;;;;;4975837;28;20086;-84
2022/04/10 11:02:58;;;;;;;13.30;1.48;;;10.20;99.90;;;;;;4993374;28;20062;-85
2022/04/10 11:05:29;;;;;;;7.25;1.30;;;10.60;99.90;;;;;;4975723;28;20046;-85
2022/04/10 11:08:02;;;;;;;8.20;1.50;;;10.90;99.90;;;;;;4992930;28;20058;-83
2022/04/10 11:10:35;;;;;;;6.57;1.30;;;11.30;99.90;;;;;;4993044;28;20127;-83
2022/04/10 11:13:06;;;;;;;8.30;1.23;;;11.20;99.90;;;;;;4959440;28;20680;-82
2022/04/10 11:15:53;;;;;;;11.15;1.33;;;11.50;99.90;;;;;;4993221;28;20047;-84
2022/04/10 11:18:41;;;;;;;7.65;1.52;;;11.00;99.90;;;;;;4992936;28;20049;-85
2022/04/10 11:21:17;;;;;;;13.10;1.50;;;10.90;99.90;;;;;;4959037;28;20059;-84
2022/04/10 11:23:46;;;;;;;5.85;1.27;;;11.30;99.90;;;;;;4992925;28;20075;-85
2022/04/10 11:26:18;;;;;;;4.65;1.10;;;11.30;99.90;;;;;;4993389;28;20082;-84
2022/04/10 11:29:03;;;;;;;10.85;0.95;;;11.10;99.90;;;;;;4960590;28;20081;-83
2022/04/10 11:31:43;;;;;;;13.77;1.27;;;11.50;99.90;;;;;;4975538;28;20050;-83
2022/04/10 11:34:28;;;;;;;9.23;1.50;;;11.80;99.90;;;;;;4993096;28;20038;-83
2022/04/10 11:36:56;;;;;;;5.32;1.20;;;11.60;99.90;;;;;;4975525;28;20489;-83
2022/04/10 11:39:32;;;;;;;8.65;1.40;;;11.80;99.90;;;;;;4985085;28;20145;-84
2022/04/10 11:42:02;;;;;;;8.10;1.10;;;11.00;99.90;;;;;;4974522;28;20057;-84
2022/04/10 11:44:29;;;;;;;5.93;0.90;;;10.80;99.90;;;;;;4951784;28;20047;-84
2022/04/10 11:46:55;;;;;;;6.95;1.20;;;11.20;99.90;;;;;;4975486;28;20193;-83
2022/04/10 11:49:21;;;;;;;9.07;1.48;;;11.60;99.90;;;;;;4959075;28;20569;-85
2022/04/10 11:52:00;;;;;;;15.35;1.70;;;11.40;99.90;;;;;;4959077;28;20496;-84
2022/04/10 11:54:26;;;;;;;7.57;1.15;;;11.40;99.90;;;;;;4959371;28;20521;-84
2022/04/10 11:56:57;;;;;;;8.20;1.38;;;11.60;99.90;;;;;;4974373;28;20050;-84
2022/04/10 11:59:23;;;;;;;12.65;1.75;;;12.00;99.90;;;;;;4992449;28;20050;-83
2022/04/10 12:01:49;;;;;;;7.53;1.00;;;11.70;99.90;;;;;;4992037;28;20103;-84
2022/04/10 12:04:18;;;;;;;9.82;1.10;;;12.20;99.90;;;;;;4975079;28;20150;-83
2022/04/10 12:06:44;;;;;;;9.75;1.23;;;12.30;99.90;;;;;;4992275;28;20046;-83
2022/04/10 12:09:29;;;;;;;6.80;0.90;;;12.20;99.90;;;;;;4973858;28;20042;-83
2022/04/10 12:12:03;;;;;;;7.35;1.10;;;11.70;99.90;;;;;;4971615;28;20047;-84
2022/04/10 12:18:14;;;;;;;6.00;1.38;;;11.50;99.90;;;;;;4891970;29;20061;-85
2022/04/10 12:20:56;;;;;;;10.20;1.08;;;11.90;99.90;;;;;;4862904;29;20056;-83
2022/04/10 12:23:25;;;;;;;5.70;1.60;;;12.00;99.90;;;;;;4869614;29;20053;-85
2022/04/10 12:25:54;;;;;;;5.63;1.20;;;12.30;99.90;;;;;;4875551;29;20055;-83
2022/04/10 12:28:21;;;;;;;8.88;1.13;;;11.70;99.90;;;;;;4875105;29;20096;-84
2022/04/10 12:30:48;;;;;;;8.82;1.02;;;11.80;99.90;;;;;;4859816;29;20596;-83
2022/04/10 12:33:17;;;;;;;6.97;1.15;;;11.80;99.90;;;;;;4891018;29;20409;-82
2022/04/10 12:35:44;;;;;;;10.52;0.85;;;12.40;99.90;;;;;;4859687;29;20568;-83
2022/04/10 12:38:16;;;;;;;8.27;1.00;;;12.60;99.90;;;;;;4875308;29;20052;-83
2022/04/10 12:40:42;;;;;;;6.32;0.93;;;12.10;99.90;;;;;;4875136;29;20057;-83
2022/04/10 12:43:15;;;;;;;9.38;1.40;;;12.40;99.90;;;;;;4875297;29;20189;-83
2022/04/10 12:45:42;;;;;;;4.55;1.33;;;11.90;99.90;;;;;;4860942;29;20473;-83
2022/04/10 12:48:34;;;;;;;5.43;0.90;;;11.50;99.90;;;;;;4875577;29;20061;-82
2022/04/10 12:51:10;;;;;;;4.30;0.80;;;11.40;99.90;;;;;;4882383;29;20089;-84
2022/04/10 12:53:37;;;;;;;7.72;0.95;;;11.30;99.90;;;;;;4914532;28;20063;-82
2022/04/10 12:56:04;;;;;;;4.18;0.93;;;11.70;99.90;;;;;;4951239;28;20053;-82
2022/04/10 12:58:55;;;;;;;4.25;0.90;;;12.00;99.90;;;;;;4978687;28;20490;-83
2022/04/10 13:01:28;;;;;;;11.02;1.08;;;12.00;99.90;;;;;;4956971;28;20066;-83
2022/04/10 13:03:56;;;;;;;6.97;1.13;;;11.70;99.90;;;;;;4975141;28;20371;-83
2022/04/10 13:06:42;;;;;;;7.78;1.27;;;11.60;99.90;;;;;;4973469;28;20077;-84
2022/04/10 13:09:12;;;;;;;7.38;1.20;;;11.90;99.90;;;;;;4954440;28;20057;-83
2022/04/10 13:11:38;;;;;;;8.75;1.20;;;11.90;99.90;;;;;;4954952;28;20047;-86
2022/04/10 13:14:11;;;;;;;8.77;1.00;;;12.10;99.90;;;;;;4987130;28;20672;-83
2022/04/10 13:16:46;;;;;;;8.02;0.90;;;11.90;99.90;;;;;;5041122;23;20508;-83
2022/04/10 13:19:17;;;;;;;7.93;1.35;;;12.30;99.90;;;;;;4953400;28;20077;-83
2022/04/10 13:21:45;;;;;;;5.18;1.05;;;12.20;99.90;;;;;;4954317;28;20047;-81
2022/04/10 13:24:11;;;;;;;5.50;1.10;;;12.50;99.90;;;;;;4972256;28;20203;-83
2022/04/10 13:26:39;;;;;;;9.75;1.48;;;12.60;99.90;;;;;;4971871;28;20118;-82
2022/04/10 13:29:07;;;;;;;4.75;0.90;;;13.00;99.90;;;;;;4954450;28;20098;-83
2022/04/10 13:31:33;;;;;;;7.50;0.98;;;12.20;99.90;;;;;;4971370;28;20504;-86
2022/04/10 13:33:59;;;;;;;5.88;1.45;;;12.20;99.90;;;;;;4954348;28;20131;-82
2022/04/10 13:36:25;;;;;;;6.40;1.30;;;11.60;99.90;;;;;;4971902;28;20130;-83